sensor_id;sensor_type;location;lat;lon;timestamp;P1;durP1;ratioP1;P2;durP2;ratioP2
21671;SDS011;10997;52.242;8.168;2022-09-21T00:00:35;2.60;;;1.90;;
21671;SDS011;10997;52.242;8.168;2022-09-21T00:05:36;2.10;;;1.73;;
21671;SDS011;10997;52.242;8.168;2022-09-21T00:10:37;3.42;;;1.98;;
21671;SDS011;10997;52.242;8.168;2022-09-21T00:15:38;3.55;;;2.00;;
21671;SDS011;10997;52.242;8.168;2022-09-21T00:20:40;2.55;;;1.77;;
21671;SDS011;10997;52.242;8.168;2022-09-21T00:25:44;2.45;;;1.75;;
21671;SDS011;10997;52.242;8.168;2022-09-21T00:30:44;2.63;;;1.40;;
21671;SDS011;10997;52.242;8.168;2022-09-21T00:35:50;1.73;;;1.50;;
21671;SDS011;10997;52.242;8.168;2022-09-21T00:40:51;3.03;;;1.60;;
21671;SDS011;10997;52.242;8.168;2022-09-21T00:46:04;3.80;;;1.77;;
21671;SDS011;10997;52.242;8.168;2022-09-21T00:51:11;5.05;;;1.88;;
21671;SDS011;10997;52.242;8.168;2022-09-21T00:56:12;3.38;;;1.70;;
21671;SDS011;10997;52.242;8.168;2022-09-21T01:01:14;3.72;;;2.08;;
21671;SDS011;10997;52.242;8.168;2022-09-21T01:06:17;2.22;;;1.67;;
21671;SDS011;10997;52.242;8.168;2022-09-21T01:38:14;5.88;;;2.22;;
21671;SDS011;10997;52.242;8.168;2022-09-21T01:43:22;2.50;;;1.63;;
21671;SDS011;10997;52.242;8.168;2022-09-21T01:48:26;2.17;;;1.60;;
21671;SDS011;10997;52.242;8.168;2022-09-21T01:53:33;2.30;;;1.52;;
21671;SDS011;10997;52.242;8.168;2022-09-21T01:59:12;2.70;;;1.65;;
21671;SDS011;10997;52.242;8.168;2022-09-21T02:04:20;1.90;;;1.40;;
21671;SDS011;10997;52.242;8.168;2022-09-21T02:09:21;2.38;;;1.27;;
21671;SDS011;10997;52.242;8.168;2022-09-21T02:14:23;1.85;;;1.30;;
21671;SDS011;10997;52.242;8.168;2022-09-21T02:35:01;2.58;;;1.77;;
21671;SDS011;10997;52.242;8.168;2022-09-21T02:45:24;2.97;;;1.90;;
21671;SDS011;10997;52.242;8.168;2022-09-21T02:50:34;2.30;;;1.70;;
21671;SDS011;10997;52.242;8.168;2022-09-21T02:55:44;2.10;;;1.67;;
21671;SDS011;10997;52.242;8.168;2022-09-21T03:00:45;2.35;;;1.60;;
21671;SDS011;10997;52.242;8.168;2022-09-21T03:05:47;3.70;;;1.63;;
21671;SDS011;10997;52.242;8.168;2022-09-21T03:10:48;2.97;;;1.60;;
21671;SDS011;10997;52.242;8.168;2022-09-21T03:15:58;1.80;;;1.60;;
21671;SDS011;10997;52.242;8.168;2022-09-21T03:21:00;2.58;;;1.90;;
21671;SDS011;10997;52.242;8.168;2022-09-21T03:26:02;4.20;;;1.80;;
21671;SDS011;10997;52.242;8.168;2022-09-21T03:31:02;1.60;;;1.50;;
21671;SDS011;10997;52.242;8.168;2022-09-21T03:36:05;2.05;;;1.85;;
21671;SDS011;10997;52.242;8.168;2022-09-21T03:41:07;4.80;;;3.00;;
21671;SDS011;10997;52.242;8.168;2022-09-21T03:46:07;5.18;;;3.47;;
21671;SDS011;10997;52.242;8.168;2022-09-21T03:51:08;3.97;;;3.08;;
21671;SDS011;10997;52.242;8.168;2022-09-21T03:56:09;4.13;;;3.50;;
21671;SDS011;10997;52.242;8.168;2022-09-21T04:01:09;4.53;;;3.22;;
21671;SDS011;10997;52.242;8.168;2022-09-21T04:06:10;5.97;;;3.83;;
21671;SDS011;10997;52.242;8.168;2022-09-21T04:11:12;4.90;;;3.83;;
21671;SDS011;10997;52.242;8.168;2022-09-21T04:16:15;4.95;;;3.97;;
21671;SDS011;10997;52.242;8.168;2022-09-21T04:21:17;8.43;;;5.90;;
21671;SDS011;10997;52.242;8.168;2022-09-21T04:26:25;7.93;;;5.60;;
21671;SDS011;10997;52.242;8.168;2022-09-21T04:31:28;7.25;;;5.50;;
21671;SDS011;10997;52.242;8.168;2022-09-21T04:36:29;7.03;;;4.68;;
21671;SDS011;10997;52.242;8.168;2022-09-21T04:41:31;7.30;;;4.95;;
21671;SDS011;10997;52.242;8.168;2022-09-21T04:46:32;4.43;;;3.60;;
21671;SDS011;10997;52.242;8.168;2022-09-21T04:51:33;4.55;;;3.58;;
21671;SDS011;10997;52.242;8.168;2022-09-21T04:56:34;7.07;;;3.70;;
21671;SDS011;10997;52.242;8.168;2022-09-21T05:01:34;6.30;;;4.40;;
21671;SDS011;10997;52.242;8.168;2022-09-21T05:06:35;7.45;;;4.82;;
21671;SDS011;10997;52.242;8.168;2022-09-21T05:11:36;5.45;;;3.53;;
21671;SDS011;10997;52.242;8.168;2022-09-21T05:16:36;4.95;;;3.50;;
21671;SDS011;10997;52.242;8.168;2022-09-21T05:21:37;3.25;;;2.90;;
21671;SDS011;10997;52.242;8.168;2022-09-21T05:26:38;4.43;;;3.60;;
21671;SDS011;10997;52.242;8.168;2022-09-21T05:31:46;6.13;;;5.00;;
21671;SDS011;10997;52.242;8.168;2022-09-21T05:37:19;7.13;;;5.32;;
21671;SDS011;10997;52.242;8.168;2022-09-21T05:42:37;7.63;;;5.47;;
21671;SDS011;10997;52.242;8.168;2022-09-21T05:47:38;7.25;;;5.53;;
21671;SDS011;10997;52.242;8.168;2022-09-21T05:53:22;10.27;;;5.30;;
21671;SDS011;10997;52.242;8.168;2022-09-21T06:04:03;8.80;;;4.97;;
21671;SDS011;10997;52.242;8.168;2022-09-21T06:09:04;7.70;;;5.22;;
21671;SDS011;10997;52.242;8.168;2022-09-21T06:14:04;12.60;;;5.93;;
21671;SDS011;10997;52.242;8.168;2022-09-21T06:19:05;7.13;;;5.18;;
21671;SDS011;10997;52.242;8.168;2022-09-21T06:24:09;12.68;;;5.90;;
21671;SDS011;10997;52.242;8.168;2022-09-21T06:29:10;9.93;;;5.65;;
21671;SDS011;10997;52.242;8.168;2022-09-21T06:34:11;12.32;;;7.50;;
21671;SDS011;10997;52.242;8.168;2022-09-21T06:39:12;12.50;;;7.63;;
21671;SDS011;10997;52.242;8.168;2022-09-21T06:44:12;10.32;;;6.95;;
21671;SDS011;10997;52.242;8.168;2022-09-21T06:49:13;7.60;;;6.00;;
21671;SDS011;10997;52.242;8.168;2022-09-21T06:54:14;8.13;;;6.05;;
21671;SDS011;10997;52.242;8.168;2022-09-21T06:59:14;9.07;;;6.13;;
21671;SDS011;10997;52.242;8.168;2022-09-21T07:04:15;10.43;;;6.43;;
21671;SDS011;10997;52.242;8.168;2022-09-21T07:09:16;9.60;;;6.80;;
21671;SDS011;10997;52.242;8.168;2022-09-21T07:14:17;12.10;;;6.63;;
21671;SDS011;10997;52.242;8.168;2022-09-21T07:19:18;9.18;;;6.43;;
21671;SDS011;10997;52.242;8.168;2022-09-21T07:24:19;9.70;;;6.53;;
21671;SDS011;10997;52.242;8.168;2022-09-21T07:29:19;9.23;;;6.70;;
21671;SDS011;10997;52.242;8.168;2022-09-21T07:34:20;7.78;;;6.53;;
21671;SDS011;10997;52.242;8.168;2022-09-21T07:39:20;9.63;;;7.20;;
21671;SDS011;10997;52.242;8.168;2022-09-21T07:44:21;9.75;;;6.88;;
21671;SDS011;10997;52.242;8.168;2022-09-21T07:49:22;13.43;;;8.07;;
21671;SDS011;10997;52.242;8.168;2022-09-21T07:54:22;12.07;;;7.53;;
21671;SDS011;10997;52.242;8.168;2022-09-21T07:59:23;10.50;;;7.20;;
21671;SDS011;10997;52.242;8.168;2022-09-21T08:04:24;8.55;;;6.78;;
21671;SDS011;10997;52.242;8.168;2022-09-21T08:09:24;11.90;;;7.45;;
21671;SDS011;10997;52.242;8.168;2022-09-21T08:14:25;8.05;;;6.20;;
21671;SDS011;10997;52.242;8.168;2022-09-21T08:19:26;9.35;;;5.68;;
21671;SDS011;10997;52.242;8.168;2022-09-21T08:24:27;9.05;;;6.18;;
21671;SDS011;10997;52.242;8.168;2022-09-21T08:29:27;8.90;;;6.03;;
21671;SDS011;10997;52.242;8.168;2022-09-21T08:34:29;8.23;;;5.68;;
21671;SDS011;10997;52.242;8.168;2022-09-21T08:39:29;9.23;;;5.55;;
21671;SDS011;10997;52.242;8.168;2022-09-21T08:44:32;8.82;;;5.55;;
21671;SDS011;10997;52.242;8.168;2022-09-21T08:49:40;6.35;;;5.32;;
21671;SDS011;10997;52.242;8.168;2022-09-21T08:54:48;8.07;;;5.78;;
21671;SDS011;10997;52.242;8.168;2022-09-21T08:59:57;12.85;;;5.80;;
21671;SDS011;10997;52.242;8.168;2022-09-21T09:20:44;13.02;;;4.97;;
21671;SDS011;10997;52.242;8.168;2022-09-21T09:26:39;7.82;;;3.80;;
21671;SDS011;10997;52.242;8.168;2022-09-21T09:31:26;11.30;;;3.47;;
21671;SDS011;10997;52.242;8.168;2022-09-21T09:36:31;8.90;;;3.38;;
21671;SDS011;10997;52.242;8.168;2022-09-21T09:52:12;7.30;;;2.25;;
21671;SDS011;10997;52.242;8.168;2022-09-21T09:57:18;8.23;;;2.42;;
21671;SDS011;10997;52.242;8.168;2022-09-21T10:02:26;6.57;;;2.30;;
21671;SDS011;10997;52.242;8.168;2022-09-21T10:07:35;8.88;;;2.20;;
21671;SDS011;10997;52.242;8.168;2022-09-21T10:12:40;10.32;;;2.22;;
21671;SDS011;10997;52.242;8.168;2022-09-21T10:17:45;7.10;;;2.25;;
21671;SDS011;10997;52.242;8.168;2022-09-21T10:22:49;10.52;;;1.80;;
21671;SDS011;10997;52.242;8.168;2022-09-21T10:27:54;7.90;;;1.90;;
21671;SDS011;10997;52.242;8.168;2022-09-21T10:32:56;9.45;;;2.17;;
21671;SDS011;10997;52.242;8.168;2022-09-21T10:38:13;8.50;;;2.15;;
21671;SDS011;10997;52.242;8.168;2022-09-21T10:43:35;6.07;;;1.83;;
21671;SDS011;10997;52.242;8.168;2022-09-21T10:48:43;11.02;;;2.25;;
21671;SDS011;10997;52.242;8.168;2022-09-21T10:53:46;9.00;;;1.90;;
21671;SDS011;10997;52.242;8.168;2022-09-21T11:04:31;6.85;;;1.80;;
21671;SDS011;10997;52.242;8.168;2022-09-21T11:09:44;4.95;;;1.65;;
21671;SDS011;10997;52.242;8.168;2022-09-21T11:15:07;6.95;;;1.60;;
21671;SDS011;10997;52.242;8.168;2022-09-21T11:30:46;7.95;;;1.50;;
21671;SDS011;10997;52.242;8.168;2022-09-21T11:47:14;8.50;;;1.80;;
21671;SDS011;10997;52.242;8.168;2022-09-21T11:58:07;9.30;;;1.90;;
21671;SDS011;10997;52.242;8.168;2022-09-21T12:03:31;7.35;;;1.90;;
21671;SDS011;10997;52.242;8.168;2022-09-21T12:19:52;9.07;;;1.70;;
21671;SDS011;10997;52.242;8.168;2022-09-21T12:30:25;5.85;;;1.63;;
21671;SDS011;10997;52.242;8.168;2022-09-21T12:40:37;6.70;;;1.30;;
21671;SDS011;10997;52.242;8.168;2022-09-21T12:51:35;6.72;;;1.63;;
21671;SDS011;10997;52.242;8.168;2022-09-21T12:56:42;9.10;;;1.60;;
21671;SDS011;10997;52.242;8.168;2022-09-21T13:01:51;7.45;;;1.73;;
21671;SDS011;10997;52.242;8.168;2022-09-21T13:17:22;5.10;;;1.60;;
21671;SDS011;10997;52.242;8.168;2022-09-21T13:22:32;6.93;;;1.45;;
21671;SDS011;10997;52.242;8.168;2022-09-21T13:48:45;9.13;;;1.50;;
21671;SDS011;10997;52.242;8.168;2022-09-21T13:53:53;3.53;;;0.90;;
21671;SDS011;10997;52.242;8.168;2022-09-21T13:58:59;3.30;;;0.88;;
21671;SDS011;10997;52.242;8.168;2022-09-21T14:04:04;2.03;;;0.70;;
21671;SDS011;10997;52.242;8.168;2022-09-21T14:20:25;2.78;;;1.00;;
21671;SDS011;10997;52.242;8.168;2022-09-21T14:25:28;3.08;;;1.00;;
21671;SDS011;10997;52.242;8.168;2022-09-21T14:30:48;4.30;;;1.30;;
21671;SDS011;10997;52.242;8.168;2022-09-21T14:35:53;8.48;;;1.60;;
21671;SDS011;10997;52.242;8.168;2022-09-21T14:40:56;5.28;;;1.80;;
21671;SDS011;10997;52.242;8.168;2022-09-21T14:51:38;4.50;;;1.60;;
21671;SDS011;10997;52.242;8.168;2022-09-21T14:56:58;8.02;;;1.55;;
21671;SDS011;10997;52.242;8.168;2022-09-21T15:02:19;6.93;;;1.40;;
21671;SDS011;10997;52.242;8.168;2022-09-21T15:13:10;5.00;;;1.60;;
21671;SDS011;10997;52.242;8.168;2022-09-21T15:18:40;5.50;;;1.52;;
21671;SDS011;10997;52.242;8.168;2022-09-21T15:23:41;5.57;;;1.50;;
21671;SDS011;10997;52.242;8.168;2022-09-21T15:28:43;5.63;;;1.80;;
21671;SDS011;10997;52.242;8.168;2022-09-21T15:33:50;2.80;;;1.40;;
21671;SDS011;10997;52.242;8.168;2022-09-21T15:38:52;4.05;;;1.70;;
21671;SDS011;10997;52.242;8.168;2022-09-21T15:44:05;5.15;;;1.80;;
21671;SDS011;10997;52.242;8.168;2022-09-21T15:49:13;5.43;;;1.48;;
21671;SDS011;10997;52.242;8.168;2022-09-21T15:54:30;6.55;;;1.80;;
21671;SDS011;10997;52.242;8.168;2022-09-21T15:59:35;5.90;;;1.92;;
21671;SDS011;10997;52.242;8.168;2022-09-21T16:04:36;4.35;;;1.30;;
21671;SDS011;10997;52.242;8.168;2022-09-21T16:09:48;5.55;;;1.38;;
21671;SDS011;10997;52.242;8.168;2022-09-21T16:14:49;5.25;;;1.80;;
21671;SDS011;10997;52.242;8.168;2022-09-21T16:24:54;9.02;;;2.90;;
21671;SDS011;10997;52.242;8.168;2022-09-21T16:29:59;8.18;;;3.60;;
21671;SDS011;10997;52.242;8.168;2022-09-21T16:40:30;7.22;;;3.60;;
21671;SDS011;10997;52.242;8.168;2022-09-21T16:45:31;5.10;;;2.33;;
21671;SDS011;10997;52.242;8.168;2022-09-21T16:50:32;5.03;;;2.63;;
21671;SDS011;10997;52.242;8.168;2022-09-21T16:55:34;8.70;;;4.00;;
21671;SDS011;10997;52.242;8.168;2022-09-21T17:00:35;8.38;;;2.83;;
21671;SDS011;10997;52.242;8.168;2022-09-21T17:05:39;7.23;;;2.60;;
21671;SDS011;10997;52.242;8.168;2022-09-21T17:10:41;6.57;;;2.85;;
21671;SDS011;10997;52.242;8.168;2022-09-21T17:15:44;8.27;;;3.38;;
21671;SDS011;10997;52.242;8.168;2022-09-21T17:20:47;5.53;;;3.35;;
21671;SDS011;10997;52.242;8.168;2022-09-21T17:25:48;8.85;;;5.72;;
21671;SDS011;10997;52.242;8.168;2022-09-21T17:30:49;11.05;;;7.15;;
21671;SDS011;10997;52.242;8.168;2022-09-21T17:35:50;14.27;;;7.53;;
21671;SDS011;10997;52.242;8.168;2022-09-21T17:40:55;12.15;;;8.05;;
21671;SDS011;10997;52.242;8.168;2022-09-21T17:51:09;12.18;;;6.53;;
21671;SDS011;10997;52.242;8.168;2022-09-21T18:01:35;7.88;;;5.85;;
21671;SDS011;10997;52.242;8.168;2022-09-21T18:06:38;13.63;;;8.40;;
21671;SDS011;10997;52.242;8.168;2022-09-21T18:22:29;13.15;;;5.55;;
21671;SDS011;10997;52.242;8.168;2022-09-21T18:27:36;27.83;;;14.00;;
21671;SDS011;10997;52.242;8.168;2022-09-21T18:43:33;22.77;;;12.25;;
21671;SDS011;10997;52.242;8.168;2022-09-21T18:54:18;16.08;;;9.50;;
21671;SDS011;10997;52.242;8.168;2022-09-21T18:59:23;15.40;;;7.75;;
21671;SDS011;10997;52.242;8.168;2022-09-21T19:04:24;15.02;;;8.13;;
21671;SDS011;10997;52.242;8.168;2022-09-21T19:25:29;17.45;;;9.32;;
21671;SDS011;10997;52.242;8.168;2022-09-21T19:30:45;18.77;;;11.73;;
21671;SDS011;10997;52.242;8.168;2022-09-21T19:35:50;17.67;;;10.43;;
21671;SDS011;10997;52.242;8.168;2022-09-21T19:40:51;12.85;;;7.95;;
21671;SDS011;10997;52.242;8.168;2022-09-21T19:51:04;11.38;;;7.65;;
21671;SDS011;10997;52.242;8.168;2022-09-21T19:56:15;13.63;;;7.43;;
21671;SDS011;10997;52.242;8.168;2022-09-21T20:01:34;11.30;;;7.13;;
21671;SDS011;10997;52.242;8.168;2022-09-21T20:06:42;9.48;;;6.50;;
21671;SDS011;10997;52.242;8.168;2022-09-21T20:17:00;10.40;;;5.93;;
21671;SDS011;10997;52.242;8.168;2022-09-21T20:22:08;9.38;;;5.90;;
21671;SDS011;10997;52.242;8.168;2022-09-21T20:27:23;8.77;;;5.35;;
21671;SDS011;10997;52.242;8.168;2022-09-21T20:32:34;8.73;;;4.72;;
21671;SDS011;10997;52.242;8.168;2022-09-21T20:37:37;8.43;;;4.47;;
21671;SDS011;10997;52.242;8.168;2022-09-21T20:42:38;8.02;;;5.20;;
21671;SDS011;10997;52.242;8.168;2022-09-21T20:47:39;8.00;;;5.18;;
21671;SDS011;10997;52.242;8.168;2022-09-21T20:52:40;8.77;;;4.97;;
21671;SDS011;10997;52.242;8.168;2022-09-21T20:57:42;7.85;;;4.93;;
21671;SDS011;10997;52.242;8.168;2022-09-21T21:02:43;7.93;;;5.82;;
21671;SDS011;10997;52.242;8.168;2022-09-21T21:07:44;8.90;;;6.03;;
21671;SDS011;10997;52.242;8.168;2022-09-21T21:12:44;7.72;;;5.13;;
21671;SDS011;10997;52.242;8.168;2022-09-21T21:17:45;12.23;;;5.97;;
21671;SDS011;10997;52.242;8.168;2022-09-21T21:22:49;9.63;;;4.97;;
21671;SDS011;10997;52.242;8.168;2022-09-21T21:27:51;7.10;;;4.30;;
21671;SDS011;10997;52.242;8.168;2022-09-21T21:32:56;11.95;;;4.15;;
21671;SDS011;10997;52.242;8.168;2022-09-21T21:37:57;8.07;;;3.88;;
21671;SDS011;10997;52.242;8.168;2022-09-21T21:42:57;8.07;;;4.25;;
21671;SDS011;10997;52.242;8.168;2022-09-21T21:47:58;7.88;;;4.05;;
21671;SDS011;10997;52.242;8.168;2022-09-21T21:52:59;5.45;;;3.92;;
21671;SDS011;10997;52.242;8.168;2022-09-21T21:57:59;9.38;;;4.32;;
21671;SDS011;10997;52.242;8.168;2022-09-21T22:03:00;8.48;;;4.13;;
21671;SDS011;10997;52.242;8.168;2022-09-21T22:08:01;6.47;;;4.20;;
21671;SDS011;10997;52.242;8.168;2022-09-21T22:13:03;6.35;;;4.55;;
21671;SDS011;10997;52.242;8.168;2022-09-21T22:18:06;8.82;;;4.22;;
21671;SDS011;10997;52.242;8.168;2022-09-21T22:23:06;6.32;;;4.70;;
21671;SDS011;10997;52.242;8.168;2022-09-21T22:28:08;5.88;;;4.15;;
21671;SDS011;10997;52.242;8.168;2022-09-21T22:33:08;6.43;;;3.80;;
21671;SDS011;10997;52.242;8.168;2022-09-21T22:38:09;5.07;;;3.42;;
21671;SDS011;10997;52.242;8.168;2022-09-21T22:43:10;4.38;;;3.00;;
21671;SDS011;10997;52.242;8.168;2022-09-21T22:48:11;4.82;;;3.08;;
21671;SDS011;10997;52.242;8.168;2022-09-21T22:53:12;4.88;;;2.95;;
21671;SDS011;10997;52.242;8.168;2022-09-21T22:58:13;5.22;;;3.28;;
21671;SDS011;10997;52.242;8.168;2022-09-21T23:03:14;6.93;;;3.20;;
21671;SDS011;10997;52.242;8.168;2022-09-21T23:08:15;5.60;;;3.65;;
21671;SDS011;10997;52.242;8.168;2022-09-21T23:13:16;8.05;;;4.10;;
21671;SDS011;10997;52.242;8.168;2022-09-21T23:18:17;5.50;;;3.20;;
21671;SDS011;10997;52.242;8.168;2022-09-21T23:23:17;4.43;;;3.47;;
21671;SDS011;10997;52.242;8.168;2022-09-21T23:28:18;3.92;;;3.00;;
21671;SDS011;10997;52.242;8.168;2022-09-21T23:33:19;4.47;;;3.15;;
21671;SDS011;10997;52.242;8.168;2022-09-21T23:38:19;4.05;;;2.90;;
21671;SDS011;10997;52.242;8.168;2022-09-21T23:43:20;4.53;;;2.80;;
21671;SDS011;10997;52.242;8.168;2022-09-21T23:48:21;3.95;;;3.17;;
21671;SDS011;10997;52.242;8.168;2022-09-21T23:53:22;3.97;;;3.20;;
21671;SDS011;10997;52.242;8.168;2022-09-21T23:58:24;4.78;;;3.05;;
